首页
METAR-TAF:

METAR-TAF

机场 :

Greenville Downtown Airport

格林维尔, 南卡罗来纳州, 美国

纬度: 34-50-46N, 经度: 082-20-46W, 海拔: 319米

当前天气观测

该预报发布于31分钟前的11:53 UTC
静风
温度 17°C
湿度 68%
气压 1017 hPa
能見度: 16.1公里
散云层高于11000英尺

METAR: KGMU 071153Z 00000KT 10SM SCT110 17/11 A3004 RMK AO2 SLP165 T01720106 10183 20150 53007

时间: 08:24 (12:24 UTC)

预报

该预报发布于49分钟前的11:35 UTC
预报有效从07日的 12点(UTC)到 08日的 12点(UTC)
风速4节,风向西
能見度: 10公里
散云层高于11000英尺
从 07日的 1600点(UTC)
风速11节,风向西转西南,有时为19节阵风
能見度: 10公里
散云层高于6000英尺, 积雨云.
多云层高于21000英尺
附近有雷暴
几率 30%
从 07日的 21点(UTC)到 07日的 24点(UTC)
能見度: 6.4公里
多云层高于5000英尺, 积雨云.
雷暴, 雨, 轻雾
从 08日的 0100点(UTC)
风速8节,风向西转西南
能見度: 10公里
散云层高于6000英尺
多云层高于25000英尺
从 08日的 0500点(UTC)
风速7节,风向西
能見度: 10公里
少量云层高于6000英尺
散云层高于25000英尺

TAF: KGMU 071135Z 0712/0812 26004KT P6SM SCT110 FM071600 24011G19KT P6SM VCTS SCT060CB BKN210 PROB30 0721/0724 4SM TSRA BR BKN050CB FM080100 24008KT P6SM SCT060 BKN250 FM080500 26007KT P6SM FEW060 SCT250

超过4000个机场的气象观测和天气预报(METAR&TAF报告)。

可查询的气象台以黄色和红色小点在地图上表示。

将鼠标移到小点上方,可查看气象台名称。

然后点击查看天气观测和预报。

如需切换地图:点击带黑十字的绿色按钮放大地图;点击带横线的绿色按钮缩小地图;或者点击绿色箭头查看邻近地区的地图。


METAR-TAF: